createdAt,value
2018-02-08T00:00:01.469Z,6.80
2018-02-08T00:01:03.930Z,7.97
2018-02-08T00:02:06.451Z,10.60
2018-02-08T00:03:08.955Z,6.50
2018-02-08T00:04:11.422Z,6.62
2018-02-08T00:05:13.898Z,12.90
2018-02-08T00:06:16.388Z,6.82
2018-02-08T00:07:18.864Z,7.10
2018-02-08T00:08:21.346Z,7.40
2018-02-08T00:09:23.809Z,7.20
2018-02-08T00:10:26.279Z,5.30
2018-02-08T00:11:28.743Z,6.77
2018-02-08T00:12:31.234Z,11.40
2018-02-08T00:13:33.735Z,8.40
2018-02-08T00:14:36.209Z,7.23
2018-02-08T00:15:38.678Z,9.90
2018-02-08T00:16:41.174Z,8.18
2018-02-08T00:17:43.651Z,5.07
2018-02-08T00:18:46.146Z,7.32
2018-02-08T00:19:48.621Z,9.70
2018-02-08T00:20:51.113Z,6.43
2018-02-08T00:21:53.583Z,7.53
2018-02-08T00:22:56.065Z,10.60
2018-02-08T00:23:58.581Z,5.53
2018-02-08T00:25:01.047Z,6.50
2018-02-08T00:26:03.520Z,5.55
2018-02-08T00:27:06.004Z,7.55
2018-02-08T00:28:08.470Z,6.80
2018-02-08T00:29:10.977Z,6.90
2018-02-08T00:30:13.468Z,6.53
2018-02-08T00:31:15.935Z,7.10
2018-02-08T00:32:18.424Z,6.62
2018-02-08T00:33:20.915Z,5.97
2018-02-08T00:34:23.439Z,8.88
2018-02-08T00:35:25.941Z,3.70
2018-02-08T00:36:28.406Z,6.35
2018-02-08T00:37:30.876Z,17.90
2018-02-08T00:38:33.355Z,10.80
2018-02-08T00:39:35.850Z,5.78
2018-02-08T00:40:38.330Z,12.82
2018-02-08T00:41:40.816Z,9.82
2018-02-08T00:42:43.301Z,10.20
2018-02-08T00:43:45.774Z,4.80
2018-02-08T00:44:48.283Z,8.30
2018-02-08T00:45:50.750Z,6.22
2018-02-08T00:46:53.227Z,7.70
2018-02-08T00:47:55.717Z,9.15
2018-02-08T00:48:58.209Z,8.63
2018-02-08T00:50:00.707Z,8.65
2018-02-08T00:51:03.194Z,5.37
2018-02-08T00:52:05.666Z,4.90
2018-02-08T00:53:08.151Z,6.75
2018-02-08T00:54:10.619Z,9.75
2018-02-08T00:55:13.124Z,5.55
2018-02-08T00:56:15.614Z,6.47
2018-02-08T00:57:18.091Z,5.18
2018-02-08T00:58:20.559Z,5.55
2018-02-08T00:59:23.014Z,6.37
2018-02-08T01:00:25.525Z,5.72
2018-02-08T01:01:28.013Z,4.53
2018-02-08T01:02:30.478Z,4.80
2018-02-08T01:03:32.964Z,6.65
2018-02-08T01:04:35.444Z,7.55
2018-02-08T01:05:37.944Z,6.20
2018-02-08T01:06:40.415Z,5.60
2018-02-08T01:07:42.890Z,7.35
2018-02-08T01:08:45.380Z,6.30
2018-02-08T01:09:47.871Z,7.55
2018-02-08T01:10:50.368Z,7.10
2018-02-08T01:11:52.864Z,4.73
2018-02-08T01:12:55.338Z,8.25
2018-02-08T01:13:57.817Z,6.10
2018-02-08T01:15:00.288Z,6.20
2018-02-08T01:16:02.782Z,8.27
2018-02-08T01:17:05.257Z,6.33
2018-02-08T01:18:07.732Z,9.25
2018-02-08T01:19:10.195Z,8.23
2018-02-08T01:20:12.677Z,6.33
2018-02-08T01:21:15.172Z,6.80
2018-02-08T01:22:17.664Z,12.88
2018-02-08T01:23:20.152Z,12.77
2018-02-08T01:24:22.640Z,9.18
2018-02-08T01:25:25.130Z,7.85
2018-02-08T01:26:27.645Z,6.18
2018-02-08T01:27:30.114Z,20.83
2018-02-08T01:28:32.596Z,7.30
2018-02-08T01:29:35.068Z,58.63
2018-02-08T01:30:37.571Z,10.55
2018-02-08T01:31:40.062Z,7.00
2018-02-08T01:32:42.544Z,6.00
2018-02-08T01:33:45.016Z,6.85
2018-02-08T01:34:47.576Z,8.60
2018-02-08T01:35:50.065Z,4.70
2018-02-08T01:36:52.576Z,4.25
2018-02-08T01:37:55.051Z,4.65
2018-02-08T01:38:57.536Z,6.95
2018-02-08T01:40:00.026Z,5.62
2018-02-08T01:41:02.501Z,8.57
2018-02-08T01:42:05.005Z,6.15
2018-02-08T01:43:07.479Z,6.10
2018-02-08T01:44:09.961Z,7.55
2018-02-08T01:45:12.435Z,8.30
2018-02-08T01:46:14.926Z,9.02
2018-02-08T01:47:17.418Z,5.75
2018-02-08T01:48:19.905Z,7.45
2018-02-08T01:49:40.772Z,6.12
2018-02-08T01:50:43.248Z,4.55
2018-02-08T01:51:45.719Z,4.80
2018-02-08T01:52:48.228Z,5.35
2018-02-08T01:53:50.702Z,6.70
2018-02-08T01:54:53.174Z,3.87
2018-02-08T01:55:55.646Z,7.15
2018-02-08T01:56:58.160Z,10.63
2018-02-08T01:58:00.666Z,5.95
2018-02-08T01:59:03.134Z,7.22
2018-02-08T02:00:05.648Z,5.65
2018-02-08T02:01:08.133Z,5.72
2018-02-08T02:02:10.622Z,4.90
2018-02-08T02:03:13.119Z,5.80
2018-02-08T02:04:15.582Z,6.20
2018-02-08T02:05:18.043Z,6.43
2018-02-08T02:06:20.533Z,4.97
2018-02-08T02:07:23.015Z,5.25
2018-02-08T02:08:25.506Z,4.68
2018-02-08T02:09:27.974Z,4.57
2018-02-08T02:10:30.457Z,6.05
2018-02-08T02:11:32.927Z,5.47
2018-02-08T02:12:35.409Z,4.53
2018-02-08T02:13:37.910Z,12.25
2018-02-08T02:14:40.391Z,8.40
2018-02-08T02:15:42.880Z,11.65
2018-02-08T02:16:45.365Z,6.00
2018-02-08T02:17:47.837Z,5.60
2018-02-08T02:18:50.322Z,6.20
2018-02-08T02:19:52.805Z,7.03
2018-02-08T02:20:55.325Z,6.85
2018-02-08T02:21:57.798Z,6.18
2018-02-08T02:23:00.263Z,6.07
2018-02-08T02:24:02.758Z,3.85
2018-02-08T02:25:05.233Z,6.73
2018-02-08T02:26:07.726Z,3.70
2018-02-08T02:27:10.202Z,4.95
2018-02-08T02:28:12.671Z,5.03
2018-02-08T02:29:15.177Z,5.18
2018-02-08T02:30:17.650Z,4.37
2018-02-08T02:31:20.142Z,4.30
2018-02-08T02:32:22.629Z,5.12
2018-02-08T02:33:25.098Z,6.43
2018-02-08T02:34:27.601Z,4.10
2018-02-08T02:35:30.089Z,7.60
2018-02-08T02:36:32.562Z,5.57
2018-02-08T02:37:35.053Z,4.85
2018-02-08T02:38:37.526Z,3.33
2018-02-08T02:39:40.037Z,3.22
2018-02-08T02:40:42.518Z,6.28
2018-02-08T02:41:45.005Z,6.65
2018-02-08T02:42:47.492Z,5.10
2018-02-08T02:43:49.976Z,4.47
2018-02-08T02:44:52.485Z,4.85
2018-02-08T02:45:54.975Z,5.35
2018-02-08T02:46:57.459Z,5.05
2018-02-08T02:47:59.930Z,4.25
2018-02-08T02:49:02.430Z,4.20
2018-02-08T02:50:04.940Z,4.20
2018-02-08T02:51:07.410Z,4.85
2018-02-08T02:52:09.899Z,4.25
2018-02-08T02:53:12.385Z,3.47
2018-02-08T02:54:14.858Z,4.90
2018-02-08T02:55:17.374Z,5.40
2018-02-08T02:56:19.847Z,6.47
2018-02-08T02:57:22.333Z,10.25
2018-02-08T02:58:24.802Z,6.65
2018-02-08T02:59:27.293Z,4.37
2018-02-08T03:00:29.783Z,3.42
2018-02-08T03:01:32.273Z,8.68
2018-02-08T03:02:34.752Z,3.35
2018-02-08T03:03:37.241Z,4.97
2018-02-08T03:04:39.720Z,5.25
2018-02-08T03:05:42.246Z,5.30
2018-02-08T03:06:44.728Z,4.53
2018-02-08T03:07:47.198Z,4.85
2018-02-08T03:08:49.674Z,5.60
2018-02-08T03:09:52.147Z,4.47
2018-02-08T03:10:54.631Z,4.90
2018-02-08T03:11:57.113Z,3.67
2018-02-08T03:12:59.608Z,4.75
2018-02-08T03:14:02.100Z,4.97
2018-02-08T03:15:04.567Z,7.50
2018-02-08T03:16:07.074Z,7.07
2018-02-08T03:17:09.551Z,6.53
2018-02-08T03:18:12.083Z,3.70
2018-02-08T03:19:14.567Z,3.35
2018-02-08T03:20:17.041Z,5.12
2018-02-08T03:21:19.548Z,5.68
2018-02-08T03:22:22.028Z,3.90
2018-02-08T03:23:24.508Z,4.03
2018-02-08T03:24:27.090Z,4.87
2018-02-08T03:25:29.595Z,4.70
2018-02-08T03:26:32.094Z,3.60
2018-02-08T03:27:34.572Z,5.13
2018-02-08T03:28:37.073Z,8.30
2018-02-08T03:29:39.553Z,9.00
2018-02-08T03:32:23.969Z,6.30
2018-02-08T03:33:26.473Z,3.15
2018-02-08T03:34:28.938Z,5.57
2018-02-08T03:35:31.408Z,3.87
2018-02-08T03:36:33.909Z,11.10
2018-02-08T03:37:36.386Z,5.95
2018-02-08T03:38:38.868Z,6.37
2018-02-08T03:39:41.377Z,8.65
2018-02-08T03:40:43.869Z,3.50
2018-02-08T03:41:46.365Z,4.45
2018-02-08T03:42:48.835Z,3.45
2018-02-08T03:43:51.316Z,4.45
2018-02-08T03:44:53.796Z,5.57
2018-02-08T03:45:56.281Z,5.12
2018-02-08T03:46:58.743Z,3.10
2018-02-08T03:48:01.206Z,6.25
2018-02-08T03:49:03.709Z,5.35
2018-02-08T03:50:06.197Z,3.87
2018-02-08T03:51:08.681Z,4.32
2018-02-08T03:52:11.155Z,3.30
2018-02-08T03:53:13.618Z,3.60
2018-02-08T03:54:16.105Z,4.32
2018-02-08T03:55:18.571Z,8.02
2018-02-08T03:56:21.049Z,4.35
2018-02-08T03:57:23.519Z,4.03
2018-02-08T03:58:26.006Z,2.90
2018-02-08T03:59:28.493Z,5.00
2018-02-08T04:00:30.976Z,3.25
2018-02-08T04:01:33.442Z,8.95
2018-02-08T04:02:35.930Z,2.90
2018-02-08T04:03:38.403Z,5.15
2018-02-08T04:04:40.888Z,3.40
2018-02-08T04:05:43.378Z,2.90
2018-02-08T04:06:45.865Z,2.92
2018-02-08T04:07:48.334Z,5.12
2018-02-08T04:08:50.802Z,4.35
2018-02-08T04:09:53.294Z,5.18
2018-02-08T04:10:55.769Z,3.93
2018-02-08T04:11:58.251Z,6.62
2018-02-08T04:13:00.722Z,5.28
2018-02-08T04:14:03.186Z,4.22
2018-02-08T04:15:05.669Z,4.43
2018-02-08T04:16:08.128Z,5.33
2018-02-08T04:17:10.601Z,5.97
2018-02-08T04:18:13.084Z,3.37
2018-02-08T04:19:15.563Z,3.70
2018-02-08T04:20:18.056Z,4.15
2018-02-08T04:21:20.560Z,4.12
2018-02-08T04:22:23.059Z,8.85
2018-02-08T04:23:25.554Z,3.53
2018-02-08T04:24:28.041Z,3.40
2018-02-08T04:25:30.514Z,3.53
2018-02-08T04:26:32.983Z,4.47
2018-02-08T04:27:35.477Z,3.10
2018-02-08T04:28:37.965Z,4.15
2018-02-08T04:29:40.454Z,3.03
2018-02-08T04:30:42.940Z,3.47
2018-02-08T04:31:45.406Z,2.92
2018-02-08T04:32:47.894Z,8.18
2018-02-08T04:33:50.352Z,3.50
2018-02-08T04:34:52.824Z,2.60
2018-02-08T04:35:55.301Z,3.57
2018-02-08T04:36:57.780Z,4.17
2018-02-08T04:38:00.260Z,2.63
2018-02-08T04:39:14.532Z,2.80
2018-02-08T04:40:28.827Z,3.00
2018-02-08T04:41:43.110Z,3.03
2018-02-08T04:42:57.454Z,5.40
2018-02-08T04:44:18.603Z,4.50
2018-02-08T04:45:32.950Z,3.40
2018-02-08T04:46:47.406Z,3.10
2018-02-08T04:48:07.643Z,2.70
2018-02-08T04:49:10.131Z,5.20
2018-02-08T04:50:12.612Z,2.50
2018-02-08T04:51:15.120Z,16.80
2018-02-08T04:52:17.616Z,4.50
2018-02-08T04:53:20.097Z,4.78
2018-02-08T04:54:22.585Z,6.47
2018-02-08T04:55:25.072Z,11.68
2018-02-08T04:56:27.562Z,5.15
2018-02-08T04:57:30.021Z,7.23
2018-02-08T04:58:32.495Z,7.50
2018-02-08T04:59:34.982Z,9.47
2018-02-08T05:00:37.477Z,10.87
2018-02-08T05:01:39.983Z,9.18
2018-02-08T05:02:42.454Z,8.68
2018-02-08T05:03:44.950Z,11.52
2018-02-08T05:04:47.438Z,8.47
2018-02-08T05:05:49.918Z,10.97
2018-02-08T05:06:52.418Z,13.93
2018-02-08T05:07:54.886Z,7.60
2018-02-08T05:08:57.362Z,8.27
2018-02-08T05:09:59.856Z,10.90
2018-02-08T05:11:02.336Z,19.00
2018-02-08T05:12:04.849Z,14.27
2018-02-08T05:13:07.333Z,13.70
2018-02-08T05:14:09.810Z,13.23
2018-02-08T05:15:12.277Z,9.30
2018-02-08T05:16:14.756Z,10.90
2018-02-08T05:17:17.436Z,16.57
2018-02-08T05:18:19.924Z,17.12
2018-02-08T05:19:22.405Z,11.17
2018-02-08T05:20:24.876Z,12.03
2018-02-08T05:21:27.339Z,8.47
2018-02-08T05:22:29.833Z,23.48
2018-02-08T05:23:32.315Z,17.63
2018-02-08T05:24:34.799Z,13.20
2018-02-08T05:25:37.282Z,16.63
2018-02-08T05:26:39.768Z,19.48
2018-02-08T05:27:42.250Z,25.23
2018-02-08T05:28:44.728Z,9.60
2018-02-08T05:29:47.214Z,11.20
2018-02-08T05:30:49.704Z,21.73
2018-02-08T05:31:52.193Z,7.75
2018-02-08T05:32:54.727Z,16.80
2018-02-08T05:33:57.210Z,22.63
2018-02-08T05:34:59.682Z,26.80
2018-02-08T05:36:02.177Z,20.85
2018-02-08T05:37:04.677Z,12.75
2018-02-08T05:38:07.184Z,18.70
2018-02-08T05:39:09.663Z,12.55
2018-02-08T05:40:12.161Z,21.33
2018-02-08T05:41:14.652Z,18.40
2018-02-08T05:42:17.148Z,13.97
2018-02-08T05:43:19.650Z,14.23
2018-02-08T05:44:22.115Z,10.33
2018-02-08T05:45:24.601Z,8.60
2018-02-08T05:46:27.100Z,13.67
2018-02-08T05:47:29.563Z,5.60
2018-02-08T05:48:32.068Z,16.43
2018-02-08T05:49:34.534Z,11.03
2018-02-08T05:50:37.002Z,9.45
2018-02-08T05:51:39.458Z,6.67
2018-02-08T05:52:41.922Z,14.27
2018-02-08T05:53:44.403Z,12.53
2018-02-08T05:54:46.867Z,10.03
2018-02-08T05:55:49.339Z,12.47
2018-02-08T05:56:51.856Z,12.18
2018-02-08T05:57:54.326Z,15.70
2018-02-08T05:58:56.837Z,10.30
2018-02-08T05:59:59.311Z,14.70
2018-02-08T06:01:01.782Z,12.67
2018-02-08T06:02:04.260Z,9.90
2018-02-08T06:03:06.730Z,8.57
2018-02-08T06:04:09.240Z,10.50
2018-02-08T06:05:11.722Z,10.80
2018-02-08T06:06:14.191Z,10.27
2018-02-08T06:07:16.671Z,11.13
2018-02-08T06:08:19.138Z,7.40
2018-02-08T06:09:21.645Z,11.13
2018-02-08T06:10:24.133Z,7.20
2018-02-08T06:11:26.609Z,8.80
2018-02-08T06:12:29.090Z,8.10
2018-02-08T06:13:31.593Z,13.75
2018-02-08T06:14:34.096Z,10.15
2018-02-08T06:15:36.582Z,12.30
2018-02-08T06:16:39.061Z,6.57
2018-02-08T06:17:41.536Z,12.77
2018-02-08T06:18:44.012Z,8.20
2018-02-08T06:19:46.525Z,8.80
2018-02-08T06:20:49.010Z,12.77
2018-02-08T06:21:51.494Z,12.98
2018-02-08T06:22:53.968Z,7.45
2018-02-08T06:23:56.422Z,7.40
2018-02-08T06:24:58.922Z,16.23
2018-02-08T06:26:01.415Z,10.63
2018-02-08T06:27:03.908Z,11.35
2018-02-08T06:28:06.424Z,10.35
2018-02-08T06:29:08.908Z,12.48
2018-02-08T06:30:11.398Z,9.20
2018-02-08T06:31:13.889Z,11.43
2018-02-08T06:32:16.502Z,7.87
2018-02-08T06:33:18.976Z,11.20
2018-02-08T06:34:21.459Z,7.00
2018-02-08T06:35:23.973Z,7.30
2018-02-08T06:36:26.472Z,5.75
2018-02-08T06:37:28.944Z,6.90
2018-02-08T06:38:31.453Z,13.85
2018-02-08T06:39:33.918Z,7.03
2018-02-08T06:40:36.423Z,6.60
2018-02-08T06:41:38.933Z,12.17
2018-02-08T06:42:41.421Z,7.93
2018-02-08T06:43:43.913Z,5.87
2018-02-08T06:44:46.417Z,11.23
2018-02-08T06:45:48.919Z,8.15
2018-02-08T06:46:51.413Z,9.30
2018-02-08T06:47:53.901Z,7.90
2018-02-08T06:48:56.384Z,6.93
2018-02-08T06:49:58.862Z,5.50
2018-02-08T06:51:01.373Z,8.20
2018-02-08T06:52:03.851Z,9.02
2018-02-08T06:53:06.347Z,10.38
2018-02-08T06:54:08.802Z,6.70
2018-02-08T06:55:11.297Z,6.25
2018-02-08T06:56:13.801Z,7.30
2018-02-08T06:57:16.288Z,4.05
2018-02-08T06:58:18.772Z,6.00
2018-02-08T06:59:21.239Z,6.53
2018-02-08T07:00:23.724Z,6.40
2018-02-08T07:01:26.237Z,9.07
2018-02-08T07:02:28.720Z,5.43
2018-02-08T07:03:31.288Z,9.73
2018-02-08T07:04:33.776Z,4.10
2018-02-08T07:05:36.259Z,12.40
2018-02-08T07:06:38.752Z,7.47
2018-02-08T07:07:41.243Z,6.87
2018-02-08T07:08:43.706Z,8.17
2018-02-08T07:09:46.174Z,6.70
2018-02-08T07:10:48.643Z,7.40
2018-02-08T07:11:51.149Z,6.00
2018-02-08T07:12:53.639Z,8.70
2018-02-08T07:13:56.110Z,10.32
2018-02-08T07:14:58.570Z,7.73
2018-02-08T07:16:01.044Z,6.53
2018-02-08T07:17:03.535Z,5.23
2018-02-08T07:18:06.031Z,14.65
2018-02-08T07:19:08.517Z,7.22
2018-02-08T07:20:11.795Z,7.30
2018-02-08T07:21:14.267Z,5.78
2018-02-08T07:22:16.761Z,6.93
2018-02-08T07:23:19.258Z,5.05
2018-02-08T07:24:21.744Z,11.73
2018-02-08T07:25:24.225Z,6.30
2018-02-08T07:26:26.719Z,10.50
2018-02-08T07:27:29.225Z,4.70
2018-02-08T07:28:31.775Z,6.30
2018-02-08T07:29:34.242Z,6.37
2018-02-08T07:30:36.727Z,7.37
2018-02-08T07:31:39.216Z,10.40
2018-02-08T07:32:41.725Z,7.97
2018-02-08T07:33:44.199Z,6.97
2018-02-08T07:34:46.676Z,5.50
2018-02-08T07:35:49.163Z,6.53
2018-02-08T07:36:51.653Z,5.03
2018-02-08T07:37:54.177Z,11.95
2018-02-08T07:38:56.954Z,10.67
2018-02-08T07:39:59.486Z,6.80
2018-02-08T07:41:01.973Z,4.70
2018-02-08T07:42:04.439Z,4.78
2018-02-08T07:43:06.945Z,5.78
2018-02-08T07:44:09.522Z,10.93
2018-02-08T07:45:11.990Z,3.62
2018-02-08T07:46:14.473Z,6.15
2018-02-08T07:47:16.947Z,5.60
2018-02-08T07:48:19.456Z,5.75
2018-02-08T07:49:21.946Z,8.13
2018-02-08T07:50:24.483Z,5.25
2018-02-08T07:51:26.965Z,4.72
2018-02-08T07:52:29.637Z,5.43
2018-02-08T07:53:32.140Z,6.07
2018-02-08T07:54:34.629Z,6.03
2018-02-08T07:55:37.170Z,6.40
2018-02-08T07:56:39.660Z,5.18
2018-02-08T07:57:42.151Z,8.95
2018-02-08T07:58:44.648Z,4.80
2018-02-08T07:59:47.129Z,7.03
2018-02-08T08:00:49.621Z,9.88
2018-02-08T08:01:52.098Z,10.03
2018-02-08T08:02:54.587Z,23.83
2018-02-08T08:03:57.130Z,19.48
2018-02-08T08:04:59.594Z,12.97
2018-02-08T08:06:02.064Z,12.97
2018-02-08T08:07:04.548Z,21.37
2018-02-08T08:08:07.044Z,20.92
2018-02-08T08:09:09.553Z,21.30
2018-02-08T08:10:12.018Z,17.80
2018-02-08T08:11:14.513Z,16.37
2018-02-08T08:12:17.009Z,16.70
2018-02-08T08:13:19.488Z,16.87
2018-02-08T08:14:22.011Z,29.65
2018-02-08T08:15:24.498Z,22.20
2018-02-08T08:16:26.985Z,16.43
2018-02-08T08:17:29.463Z,17.65
2018-02-08T08:18:31.945Z,21.27
2018-02-08T08:19:34.461Z,23.07
2018-02-08T08:20:36.930Z,24.03
2018-02-08T08:21:39.433Z,22.40
2018-02-08T08:22:41.903Z,22.27
2018-02-08T08:23:44.401Z,21.00
2018-02-08T08:24:46.904Z,23.90
2018-02-08T08:25:49.390Z,27.20
2018-02-08T08:26:51.892Z,28.75
2018-02-08T08:27:54.386Z,23.25
2018-02-08T08:28:56.875Z,26.15
2018-02-08T08:29:59.422Z,30.30
2018-02-08T08:31:01.930Z,27.23
2018-02-08T08:32:04.416Z,27.95
2018-02-08T08:33:07.223Z,34.25
2018-02-08T08:34:11.631Z,35.05
2018-02-08T08:35:14.151Z,34.38
2018-02-08T08:36:16.961Z,28.08
2018-02-08T08:37:19.591Z,32.83
2018-02-08T08:38:22.434Z,27.73
2018-02-08T08:39:24.938Z,31.48
2018-02-08T08:40:27.438Z,27.77
2018-02-08T08:41:30.899Z,52.45
2018-02-08T08:42:33.398Z,32.53
2018-02-08T08:43:35.879Z,30.95
2018-02-08T08:44:39.920Z,31.35
2018-02-08T08:45:42.774Z,48.42
2018-02-08T08:46:45.337Z,27.75
2018-02-08T08:47:47.810Z,27.33
2018-02-08T08:48:50.298Z,33.72
2018-02-08T08:49:52.773Z,25.75
2018-02-08T08:50:55.293Z,32.53
2018-02-08T08:51:58.212Z,30.80
2018-02-08T08:53:00.715Z,31.00
2018-02-08T08:54:03.191Z,31.33
2018-02-08T08:55:06.052Z,27.25
2018-02-08T08:56:08.573Z,28.35
2018-02-08T08:57:11.051Z,30.75
2018-02-08T08:58:13.542Z,31.40
2018-02-08T08:59:16.053Z,28.87
2018-02-08T09:00:18.531Z,29.00
2018-02-08T09:01:21.051Z,31.90
2018-02-08T09:02:23.549Z,31.67
2018-02-08T09:03:26.044Z,36.08
2018-02-08T09:04:28.539Z,32.17
2018-02-08T09:05:31.033Z,31.83
2018-02-08T09:06:33.549Z,29.45
2018-02-08T09:07:36.041Z,31.92
2018-02-08T09:08:38.533Z,29.42
2018-02-08T09:09:41.018Z,31.17
2018-02-08T09:10:43.499Z,25.40
2018-02-08T09:11:45.999Z,33.28
2018-02-08T09:12:48.491Z,29.50
2018-02-08T09:13:50.971Z,32.25
2018-02-08T09:14:53.445Z,31.30
2018-02-08T09:15:55.929Z,33.97
2018-02-08T09:16:58.510Z,29.58
2018-02-08T09:18:01.015Z,49.58
2018-02-08T09:19:03.509Z,27.62
2018-02-08T09:20:06.159Z,27.98
2018-02-08T09:21:08.640Z,30.73
2018-02-08T09:22:11.204Z,31.92
2018-02-08T09:23:13.690Z,30.25
2018-02-08T09:24:16.183Z,29.80
2018-02-08T09:25:18.663Z,30.45
2018-02-08T09:26:21.148Z,34.70
2018-02-08T09:27:23.682Z,37.13
2018-02-08T09:28:26.172Z,30.80
2018-02-08T09:29:28.665Z,35.15
2018-02-08T09:30:31.597Z,33.15
2018-02-08T09:31:34.130Z,33.58
2018-02-08T09:32:36.644Z,33.88
2018-02-08T09:33:39.145Z,33.50
2018-02-08T09:34:42.920Z,31.60
2018-02-08T09:35:45.403Z,33.08
2018-02-08T09:36:47.890Z,28.33
2018-02-08T09:37:50.413Z,33.22
2018-02-08T09:38:52.997Z,34.10
2018-02-08T09:39:55.488Z,35.95
2018-02-08T09:40:58.065Z,29.17
2018-02-08T09:42:00.558Z,27.95
2018-02-08T09:43:03.138Z,34.08
2018-02-08T09:44:06.273Z,29.08
2018-02-08T09:45:12.353Z,29.05
2018-02-08T09:46:14.918Z,23.40
2018-02-08T09:47:17.412Z,29.42
2018-02-08T09:48:19.934Z,24.48
2018-02-08T09:49:22.509Z,27.30
2018-02-08T09:50:25.007Z,25.17
2018-02-08T09:51:27.543Z,27.25
2018-02-08T09:52:30.036Z,27.98
2018-02-08T09:53:32.547Z,27.62
2018-02-08T09:54:35.033Z,24.20
2018-02-08T09:55:37.543Z,25.98
2018-02-08T09:56:40.037Z,24.00
2018-02-08T09:57:42.519Z,26.02
2018-02-08T09:58:45.040Z,25.92
2018-02-08T09:59:47.533Z,21.40
2018-02-08T10:00:50.018Z,24.17
2018-02-08T10:01:52.506Z,23.85
2018-02-08T10:02:55.158Z,23.42
2018-02-08T10:03:57.911Z,21.92
2018-02-08T10:05:00.403Z,24.75
2018-02-08T10:06:02.891Z,26.62
2018-02-08T10:07:05.394Z,22.95
2018-02-08T10:08:07.884Z,25.83
2018-02-08T10:09:10.400Z,19.75
2018-02-08T10:10:12.898Z,24.67
2018-02-08T10:11:15.388Z,23.62
2018-02-08T10:12:17.873Z,20.27
2018-02-08T10:13:20.351Z,20.92
2018-02-08T10:14:22.878Z,17.80
2018-02-08T10:15:25.547Z,19.70
2018-02-08T10:16:28.069Z,19.48
2018-02-08T10:17:30.998Z,22.37
2018-02-08T10:18:33.544Z,21.58
2018-02-08T10:19:37.005Z,26.77
2018-02-08T10:20:39.495Z,31.52
2018-02-08T10:21:41.990Z,20.90
2018-02-08T10:22:44.505Z,21.55
2018-02-08T10:23:47.005Z,23.98
2018-02-08T10:24:49.529Z,26.87
2018-02-08T10:25:52.015Z,20.67
2018-02-08T10:26:54.494Z,18.50
2018-02-08T10:27:56.993Z,26.20
2018-02-08T10:28:59.504Z,22.20
2018-02-08T10:30:02.015Z,22.17
2018-02-08T10:31:04.498Z,21.67
2018-02-08T10:32:06.978Z,21.15
2018-02-08T10:33:09.476Z,23.65
2018-02-08T10:34:11.973Z,21.42
2018-02-08T10:35:14.462Z,23.70
2018-02-08T10:36:16.951Z,21.98
2018-02-08T10:37:19.449Z,20.37
2018-02-08T10:38:21.932Z,23.42
2018-02-08T10:39:24.418Z,18.92
2018-02-08T10:40:26.925Z,22.60
2018-02-08T10:41:29.425Z,22.33
2018-02-08T10:42:31.922Z,19.20
2018-02-08T10:43:34.408Z,17.33
2018-02-08T10:44:36.909Z,19.73
2018-02-08T10:45:39.421Z,19.45
2018-02-08T10:46:41.903Z,16.70
2018-02-08T10:47:44.396Z,21.42
2018-02-08T10:48:46.900Z,22.70
2018-02-08T10:49:49.386Z,15.47
2018-02-08T10:50:51.896Z,16.92
2018-02-08T10:52:58.614Z,19.67
2018-02-08T10:54:01.114Z,18.62
2018-02-08T10:55:03.609Z,16.27
2018-02-08T10:56:06.111Z,16.80
2018-02-08T10:57:08.595Z,18.20
2018-02-08T10:58:11.096Z,16.15
2018-02-08T10:59:13.582Z,16.05
2018-02-08T11:00:16.078Z,17.27
2018-02-08T11:01:18.600Z,16.73
2018-02-08T11:02:21.087Z,17.27
2018-02-08T11:03:23.568Z,14.85
2018-02-08T11:04:26.100Z,16.40
2018-02-08T11:05:28.610Z,23.15
2018-02-08T11:06:31.112Z,19.10
2018-02-08T11:07:33.621Z,16.77
2018-02-08T11:08:36.114Z,15.40
2018-02-08T11:09:38.604Z,21.08
2018-02-08T11:10:41.080Z,15.65
2018-02-08T11:11:43.588Z,15.85
2018-02-08T11:12:46.085Z,17.98
2018-02-08T11:13:48.567Z,15.95
2018-02-08T11:14:51.044Z,19.53
2018-02-08T11:15:53.522Z,16.62
2018-02-08T11:16:56.050Z,17.65
2018-02-08T11:17:58.561Z,22.60
2018-02-08T11:19:01.049Z,17.90
2018-02-08T11:20:03.531Z,17.30
2018-02-08T11:21:06.022Z,18.05
2018-02-08T11:22:08.541Z,22.45
2018-02-08T11:23:11.033Z,22.17
2018-02-08T11:24:13.547Z,25.70
2018-02-08T11:25:16.035Z,19.98
2018-02-08T11:26:18.567Z,19.35
2018-02-08T11:27:21.065Z,20.17
2018-02-08T11:28:23.561Z,23.12
2018-02-08T11:29:26.058Z,19.67
2018-02-08T11:30:28.549Z,22.87
2018-02-08T11:31:31.031Z,19.45
2018-02-08T11:32:33.534Z,23.52
2018-02-08T11:33:36.032Z,25.02
2018-02-08T11:34:38.532Z,18.58
2018-02-08T11:35:41.028Z,20.27
2018-02-08T11:36:43.511Z,16.83
2018-02-08T11:37:46.011Z,19.12
2018-02-08T11:38:48.495Z,19.08
2018-02-08T11:39:51.060Z,17.80
2018-02-08T11:40:53.539Z,17.77
2018-02-08T11:41:56.029Z,18.62
2018-02-08T11:42:58.566Z,17.45
2018-02-08T11:44:01.128Z,19.45
2018-02-08T11:45:03.631Z,18.95
2018-02-08T11:46:06.124Z,16.45
2018-02-08T11:47:08.621Z,20.73
2018-02-08T11:48:11.203Z,22.30
2018-02-08T11:49:13.701Z,18.60
2018-02-08T11:50:16.207Z,21.60
2018-02-08T11:51:18.709Z,30.85
2018-02-08T11:52:21.209Z,19.70
2018-02-08T11:53:23.728Z,19.27
2018-02-08T11:54:26.230Z,15.18
2018-02-08T11:55:28.768Z,18.73
2018-02-08T11:56:31.310Z,22.13
2018-02-08T11:57:33.807Z,15.40
2018-02-08T11:58:36.330Z,19.17
2018-02-08T11:59:38.825Z,19.50
2018-02-08T12:00:41.322Z,17.25
2018-02-08T12:01:43.802Z,19.65
2018-02-08T12:02:46.310Z,14.90
2018-02-08T12:03:48.943Z,15.98
2018-02-08T12:04:51.441Z,22.08
2018-02-08T12:05:53.919Z,18.60
2018-02-08T12:06:56.427Z,13.90
2018-02-08T12:07:58.934Z,18.65
2018-02-08T12:09:01.478Z,16.77
2018-02-08T12:10:03.977Z,13.70
2018-02-08T12:11:06.456Z,13.82
2018-02-08T12:12:08.967Z,18.30
2018-02-08T12:13:11.477Z,15.82
2018-02-08T12:14:13.994Z,21.83
2018-02-08T12:15:16.514Z,13.52
2018-02-08T12:16:19.031Z,21.77
2018-02-08T12:17:21.522Z,18.67
2018-02-08T12:18:24.368Z,16.83
2018-02-08T12:19:27.027Z,17.75
2018-02-08T12:20:29.582Z,16.33
2018-02-08T12:21:32.097Z,22.00
2018-02-08T12:22:34.570Z,20.70
2018-02-08T12:23:37.049Z,29.10
2018-02-08T12:24:39.548Z,47.07
2018-02-08T12:25:42.030Z,14.40
2018-02-08T12:26:44.517Z,14.13
2018-02-08T12:27:46.990Z,16.97
2018-02-08T12:28:49.478Z,18.07
2018-02-08T12:29:51.947Z,14.27
2018-02-08T12:30:54.423Z,16.90
2018-02-08T12:31:56.904Z,19.50
2018-02-08T12:32:59.401Z,12.67
2018-02-08T12:34:01.964Z,26.60
2018-02-08T12:35:04.448Z,17.27
2018-02-08T12:36:06.938Z,17.17
2018-02-08T12:37:09.426Z,18.20
2018-02-08T12:38:11.999Z,18.80
2018-02-08T12:39:14.471Z,14.30
2018-02-08T12:40:16.965Z,14.50
2018-02-08T12:41:19.454Z,18.10
2018-02-08T12:42:21.923Z,12.53
2018-02-08T12:43:24.394Z,14.47
2018-02-08T12:44:26.860Z,13.50
2018-02-08T12:45:29.323Z,17.30
2018-02-08T12:46:31.799Z,17.80
2018-02-08T12:47:34.266Z,13.13
2018-02-08T12:48:36.752Z,17.87
2018-02-08T12:49:39.242Z,14.10
2018-02-08T12:50:41.801Z,24.33
2018-02-08T12:51:44.267Z,13.10
2018-02-08T12:52:46.739Z,14.67
2018-02-08T12:53:49.235Z,14.73
2018-02-08T12:54:51.724Z,11.43
2018-02-08T12:55:54.206Z,12.27
2018-02-08T12:56:56.675Z,16.63
2018-02-08T12:57:59.314Z,15.33
2018-02-08T12:59:01.780Z,12.87
2018-02-08T13:00:04.256Z,17.87
2018-02-08T13:01:06.745Z,12.67
2018-02-08T13:02:09.233Z,12.17
2018-02-08T13:03:11.720Z,14.67
2018-02-08T13:04:14.210Z,13.67
2018-02-08T13:05:16.708Z,13.33
2018-02-08T13:06:19.175Z,16.03
2018-02-08T13:07:21.643Z,11.70
2018-02-08T13:08:24.133Z,14.10
2018-02-08T13:09:26.618Z,12.40
2018-02-08T13:10:29.100Z,12.40
2018-02-08T13:11:31.570Z,14.27
2018-02-08T13:12:34.082Z,13.00
2018-02-08T13:13:36.562Z,10.90
2018-02-08T13:14:39.030Z,11.00
2018-02-08T13:15:41.506Z,13.17
2018-02-08T13:16:44.062Z,10.13
2018-02-08T13:17:46.526Z,8.00
2018-02-08T13:18:49.009Z,9.50
2018-02-08T13:19:51.481Z,14.43
2018-02-08T13:20:53.954Z,11.50
2018-02-08T13:21:56.451Z,11.07
2018-02-08T13:22:58.941Z,10.33
2018-02-08T13:24:01.407Z,10.83
2018-02-08T13:25:03.892Z,10.13
2018-02-08T13:26:06.362Z,9.63
2018-02-08T13:27:08.844Z,10.13
2018-02-08T13:28:11.306Z,9.37
2018-02-08T13:29:13.771Z,9.87
2018-02-08T13:30:16.253Z,10.70
2018-02-08T13:31:22.161Z,15.60
2018-02-08T13:32:24.627Z,11.13
2018-02-08T13:33:27.110Z,9.47
2018-02-08T13:34:29.592Z,9.43
2018-02-08T13:35:32.078Z,10.47
2018-02-08T13:36:34.575Z,12.13
2018-02-08T13:37:37.059Z,8.20
2018-02-08T13:38:39.540Z,8.80
2018-02-08T13:39:46.617Z,8.50
2018-02-08T13:40:50.023Z,10.03
2018-02-08T13:41:52.496Z,10.67